Terminal Aerodrome Forecast
Issued by NWS

Home | Current Version | Previous Version | Text Only | Print | Product List | Glossary On
Versions: 1 2 3 4 5 6 7 8 9 10 11 12 13 14 15 16
000
FTUS46 KMFR 201740
TAFRBG
TAF
KRBG 201740Z 2018/2118 36005KT P6SM SKC
     FM201900 01013G23KT P6SM SKC
     FM210300 35005KT P6SM SKC
     FM211200 00000KT P6SM SKC=

USA.gov is the U.S. government's official web portal to all federal, state and local government web resources and services.